createdAt,value
2019-03-22T00:01:15.294Z,86.60
2019-03-22T00:03:45.209Z,86.90
2019-03-22T00:06:15.168Z,87.00
2019-03-22T00:08:45.045Z,86.70
2019-03-22T00:11:15.208Z,86.20
2019-03-22T00:13:47.592Z,86.00
2019-03-22T00:16:19.197Z,86.00
2019-03-22T00:18:50.356Z,85.90
2019-03-22T00:21:41.911Z,86.30
2019-03-22T00:24:13.930Z,86.50
2019-03-22T00:26:43.907Z,86.70
2019-03-22T00:29:16.465Z,86.60
2019-03-22T00:31:47.053Z,87.30
2019-03-22T00:34:19.415Z,87.10
2019-03-22T00:36:51.776Z,87.00
2019-03-22T00:39:23.093Z,86.90
2019-03-22T00:41:54.570Z,86.90
2019-03-22T00:44:28.272Z,87.00
2019-03-22T00:47:02.903Z,87.00
2019-03-22T00:49:34.658Z,87.20
2019-03-22T00:52:25.059Z,86.70
2019-03-22T00:54:56.053Z,86.80
2019-03-22T00:57:28.736Z,87.20
2019-03-22T01:00:02.195Z,87.40
2019-03-22T01:02:34.732Z,87.60
2019-03-22T01:05:06.578Z,87.80
2019-03-22T01:07:38.745Z,87.70
2019-03-22T01:10:12.421Z,87.10
2019-03-22T01:12:43.896Z,87.00
2019-03-22T01:15:17.574Z,87.00
2019-03-22T01:17:49.500Z,86.80
2019-03-22T01:20:19.406Z,86.80
2019-03-22T01:22:53.176Z,86.80
2019-03-22T01:25:23.368Z,87.00
2019-03-22T01:27:55.897Z,87.60
2019-03-22T01:30:28.378Z,87.30
2019-03-22T01:32:59.514Z,87.40
2019-03-22T01:35:30.969Z,87.80
2019-03-22T01:38:02.215Z,87.60
2019-03-22T01:40:33.241Z,87.60
2019-03-22T01:43:04.445Z,88.00
2019-03-22T01:45:37.502Z,88.30
2019-03-22T01:48:09.660Z,87.80
2019-03-22T01:50:40.523Z,88.10
2019-03-22T01:53:13.618Z,87.60
2019-03-22T01:55:46.640Z,87.40
2019-03-22T01:58:16.716Z,87.20
2019-03-22T02:00:46.701Z,87.30
2019-03-22T02:03:18.981Z,87.20
2019-03-22T02:05:49.706Z,86.90
2019-03-22T02:08:19.662Z,87.40
2019-03-22T02:10:49.659Z,87.80
2019-03-22T02:13:20.982Z,87.80
2019-03-22T02:15:52.302Z,88.40
2019-03-22T02:18:23.238Z,87.80
2019-03-22T02:20:55.659Z,88.70
2019-03-22T02:23:29.822Z,89.00
2019-03-22T02:26:02.295Z,88.30
2019-03-22T02:28:33.214Z,89.00
2019-03-22T02:31:04.430Z,89.20
2019-03-22T02:33:56.326Z,89.30
2019-03-22T02:36:27.859Z,89.30
2019-03-22T02:38:59.066Z,90.00
2019-03-22T02:41:30.753Z,89.80
2019-03-22T02:44:03.067Z,89.30
2019-03-22T02:46:32.959Z,88.90
2019-03-22T02:49:02.349Z,89.10
2019-03-22T02:51:34.809Z,88.90
2019-03-22T02:54:04.177Z,88.70
2019-03-22T02:56:35.705Z,88.60
2019-03-22T02:59:09.551Z,89.50
2019-03-22T03:01:38.874Z,89.60
2019-03-22T03:04:10.407Z,89.70
2019-03-22T03:06:41.389Z,88.80
2019-03-22T03:09:11.555Z,89.10
2019-03-22T03:11:45.071Z,89.20
2019-03-22T03:14:16.169Z,89.70
2019-03-22T03:16:46.943Z,89.70
2019-03-22T03:19:16.297Z,89.50
2019-03-22T03:21:47.322Z,89.20
2019-03-22T03:24:20.598Z,88.90
2019-03-22T03:27:12.319Z,89.00
2019-03-22T03:29:44.558Z,88.90
2019-03-22T03:32:15.619Z,88.70
2019-03-22T03:34:46.153Z,89.00
2019-03-22T03:37:16.519Z,89.50
2019-03-22T03:42:26.132Z,89.70
2019-03-22T03:44:57.523Z,90.00
2019-03-22T03:47:29.172Z,90.00
2019-03-22T03:49:59.173Z,90.20
2019-03-22T03:52:29.144Z,90.30
2019-03-22T03:55:00.548Z,90.40
2019-03-22T03:57:31.877Z,90.70
2019-03-22T04:00:03.469Z,90.80
2019-03-22T04:02:33.383Z,90.80
2019-03-22T04:05:03.370Z,90.90
2019-03-22T04:07:34.567Z,91.20
2019-03-22T04:10:05.165Z,91.10
2019-03-22T04:12:36.351Z,91.30
2019-03-22T04:15:10.364Z,91.40
2019-03-22T04:17:41.776Z,91.00
2019-03-22T04:22:48.565Z,90.30
2019-03-22T04:25:22.321Z,90.00
2019-03-22T04:27:52.211Z,90.20
2019-03-22T04:30:45.490Z,90.60
2019-03-22T04:33:18.040Z,90.60
2019-03-22T04:35:48.991Z,90.70
2019-03-22T04:38:20.649Z,90.60
2019-03-22T04:40:57.942Z,90.10
2019-03-22T04:43:29.324Z,89.90
2019-03-22T04:46:00.616Z,89.90
2019-03-22T04:48:34.456Z,90.20
2019-03-22T04:51:08.138Z,90.30
2019-03-22T04:53:43.310Z,90.30
2019-03-22T04:56:16.694Z,90.10
2019-03-22T04:58:51.459Z,90.00
2019-03-22T05:01:26.661Z,89.90
2019-03-22T05:03:59.400Z,90.00
2019-03-22T05:06:30.075Z,91.20
2019-03-22T05:09:02.781Z,91.60
2019-03-22T05:11:32.942Z,91.30
2019-03-22T05:14:04.013Z,91.40
2019-03-22T05:16:38.484Z,91.70
2019-03-22T05:19:10.458Z,91.60
2019-03-22T05:21:44.007Z,90.90
2019-03-22T05:24:18.441Z,90.60
2019-03-22T05:26:51.241Z,90.20
2019-03-22T05:29:30.438Z,89.80
2019-03-22T05:32:07.674Z,90.00
2019-03-22T05:34:40.087Z,90.00
2019-03-22T05:37:30.646Z,90.30
2019-03-22T05:40:02.850Z,90.20
2019-03-22T05:42:35.626Z,90.30
2019-03-22T05:45:12.780Z,90.30
2019-03-22T05:47:45.394Z,90.30
2019-03-22T05:50:16.304Z,90.30
2019-03-22T05:52:46.235Z,89.90
2019-03-22T05:55:20.484Z,89.70
2019-03-22T05:57:51.918Z,89.40
2019-03-22T06:00:22.987Z,89.30
2019-03-22T06:02:59.234Z,90.20
2019-03-22T06:05:30.251Z,90.70
2019-03-22T06:08:00.266Z,90.50
2019-03-22T06:10:32.466Z,90.10
2019-03-22T06:13:03.582Z,89.80
2019-03-22T06:15:34.245Z,89.60
2019-03-22T06:18:05.294Z,89.40
2019-03-22T06:20:36.180Z,89.30
2019-03-22T06:23:08.397Z,88.70
2019-03-22T06:25:39.634Z,88.10
2019-03-22T06:28:11.087Z,88.20
2019-03-22T06:30:41.894Z,87.70
2019-03-22T06:33:14.325Z,87.50
2019-03-22T06:35:46.520Z,87.30
2019-03-22T06:38:18.836Z,86.50
2019-03-22T06:40:49.560Z,86.40
2019-03-22T06:43:20.815Z,85.80
2019-03-22T06:45:52.268Z,84.70
2019-03-22T06:48:22.155Z,84.60
2019-03-22T06:50:52.313Z,84.10
2019-03-22T06:53:23.615Z,83.80
2019-03-22T06:55:56.041Z,83.80
2019-03-22T06:58:27.004Z,84.10
2019-03-22T07:00:58.951Z,83.70
2019-03-22T07:03:30.049Z,83.60
2019-03-22T07:06:00.265Z,82.80
2019-03-22T07:08:31.328Z,82.70
2019-03-22T07:11:02.611Z,82.90
2019-03-22T07:16:26.236Z,82.50
2019-03-22T07:18:59.128Z,83.00
2019-03-22T07:21:34.121Z,83.10
2019-03-22T07:24:04.077Z,82.90
2019-03-22T07:26:35.545Z,82.80
2019-03-22T07:29:07.938Z,82.80
2019-03-22T07:31:39.306Z,82.60
2019-03-22T07:34:10.339Z,82.70
2019-03-22T07:36:40.355Z,82.50
2019-03-22T07:39:13.362Z,82.50
2019-03-22T07:41:45.766Z,82.50
2019-03-22T07:44:19.267Z,82.20
2019-03-22T07:46:54.168Z,83.00
2019-03-22T07:49:31.068Z,83.00
2019-03-22T07:52:04.788Z,83.30
2019-03-22T07:54:38.055Z,83.20
2019-03-22T07:57:09.411Z,83.50
2019-03-22T07:59:43.515Z,83.60
2019-03-22T08:02:16.122Z,83.90
2019-03-22T08:04:47.213Z,84.00
2019-03-22T08:07:17.047Z,83.80
2019-03-22T08:09:51.066Z,83.80
2019-03-22T08:12:20.709Z,83.40
2019-03-22T08:14:55.315Z,83.60
2019-03-22T08:17:29.962Z,83.10
2019-03-22T08:19:59.271Z,83.10
2019-03-22T08:22:30.556Z,83.30
2019-03-22T08:25:04.580Z,83.20
2019-03-22T08:27:34.548Z,83.10
2019-03-22T08:30:04.135Z,83.40
2019-03-22T08:32:36.897Z,83.50
2019-03-22T08:35:07.976Z,83.40
2019-03-22T08:37:37.414Z,83.50
2019-03-22T08:40:08.708Z,83.10
2019-03-22T08:42:41.323Z,83.10
2019-03-22T08:45:12.733Z,83.00
2019-03-22T08:47:43.315Z,82.80
2019-03-22T08:50:17.030Z,82.90
2019-03-22T08:52:48.938Z,82.60
2019-03-22T08:55:18.851Z,82.40
2019-03-22T08:57:53.309Z,82.30
2019-03-22T09:00:23.402Z,82.30
2019-03-22T09:02:54.999Z,82.20
2019-03-22T09:05:27.482Z,81.80
2019-03-22T09:07:57.103Z,82.00
2019-03-22T09:10:28.648Z,81.70
2019-03-22T09:13:01.579Z,81.60
2019-03-22T09:15:41.134Z,81.70
2019-03-22T09:18:18.395Z,82.00
2019-03-22T09:20:50.618Z,81.50
2019-03-22T09:23:21.518Z,82.10
2019-03-22T09:25:53.930Z,81.90
2019-03-22T09:28:25.257Z,81.50
2019-03-22T09:31:09.816Z,81.10
2019-03-22T09:33:34.938Z,81.20
2019-03-22T09:36:07.348Z,80.80
2019-03-22T09:38:39.926Z,80.70
2019-03-22T09:41:15.215Z,80.50
2019-03-22T09:43:47.503Z,79.90
2019-03-22T09:46:19.515Z,79.60
2019-03-22T09:48:50.646Z,79.80
2019-03-22T09:51:20.768Z,79.90
2019-03-22T09:53:53.359Z,79.80
2019-03-22T09:56:24.151Z,80.10
2019-03-22T09:58:55.358Z,80.20
2019-03-22T10:01:25.418Z,79.50
2019-03-22T10:04:00.739Z,79.90
2019-03-22T10:06:35.790Z,79.60
2019-03-22T10:09:11.095Z,80.10
2019-03-22T10:11:42.652Z,80.00
2019-03-22T10:14:15.052Z,80.00
2019-03-22T10:16:47.688Z,80.30
2019-03-22T10:19:20.531Z,80.40
2019-03-22T10:21:54.348Z,80.10
2019-03-22T10:24:31.884Z,80.20
2019-03-22T10:27:05.217Z,80.00
2019-03-22T10:29:37.502Z,80.80
2019-03-22T10:32:10.152Z,80.20
2019-03-22T10:34:40.969Z,80.10
2019-03-22T10:37:19.878Z,80.30
2019-03-22T10:39:55.546Z,80.40
2019-03-22T10:42:28.720Z,79.40
2019-03-22T10:45:00.374Z,79.30
2019-03-22T10:47:31.372Z,78.80
2019-03-22T10:50:01.361Z,79.20
2019-03-22T10:52:33.492Z,78.80
2019-03-22T10:55:17.740Z,78.80
2019-03-22T10:57:40.489Z,79.00
2019-03-22T11:00:13.527Z,79.50
2019-03-22T11:02:48.740Z,79.70
2019-03-22T11:05:19.948Z,79.70
2019-03-22T11:07:51.122Z,79.40
2019-03-22T11:10:24.328Z,79.50
2019-03-22T11:12:56.159Z,78.70
2019-03-22T11:15:28.297Z,78.30
2019-03-22T11:17:59.510Z,78.20
2019-03-22T11:20:51.440Z,78.10
2019-03-22T11:23:25.078Z,77.70
2019-03-22T11:26:04.176Z,77.20
2019-03-22T11:28:32.017Z,77.30
2019-03-22T11:31:04.948Z,77.30
2019-03-22T11:33:36.117Z,76.90
2019-03-22T11:36:09.070Z,76.80
2019-03-22T11:38:41.063Z,76.30
2019-03-22T11:41:12.068Z,75.70
2019-03-22T11:43:43.334Z,75.40
2019-03-22T11:46:16.816Z,75.00
2019-03-22T11:48:48.359Z,75.00
2019-03-22T11:51:18.494Z,74.50
2019-03-22T11:53:50.220Z,75.20
2019-03-22T11:56:20.386Z,74.60
2019-03-22T11:58:50.317Z,74.40
2019-03-22T12:01:22.620Z,75.00
2019-03-22T12:03:54.014Z,75.00
2019-03-22T12:09:01.040Z,73.80
2019-03-22T12:14:14.338Z,73.50
2019-03-22T12:16:45.335Z,74.70
2019-03-22T12:19:15.587Z,74.30
2019-03-22T12:21:49.043Z,74.80
2019-03-22T12:24:19.838Z,75.10
2019-03-22T12:26:54.040Z,75.20
2019-03-22T12:29:24.015Z,75.30
2019-03-22T12:31:56.183Z,75.00
2019-03-22T12:34:27.195Z,75.00
2019-03-22T12:36:57.096Z,74.50
2019-03-22T12:39:28.148Z,74.30
2019-03-22T12:42:04.037Z,74.80
2019-03-22T12:44:35.848Z,73.70
2019-03-22T12:47:08.237Z,73.30
2019-03-22T12:49:39.524Z,73.90
2019-03-22T12:52:08.918Z,74.00
2019-03-22T12:54:42.070Z,74.60
2019-03-22T12:57:15.603Z,72.80
2019-03-22T12:59:50.379Z,73.40
2019-03-22T13:02:19.739Z,72.40
2019-03-22T13:04:53.786Z,71.10
2019-03-22T13:07:26.210Z,71.70
2019-03-22T13:09:58.799Z,72.70
2019-03-22T13:12:32.227Z,72.90
2019-03-22T13:15:06.315Z,72.90
2019-03-22T13:17:44.502Z,72.40
2019-03-22T13:20:16.784Z,73.20
2019-03-22T13:22:48.505Z,72.80
2019-03-22T13:25:21.526Z,72.80
2019-03-22T13:27:52.234Z,72.50
2019-03-22T13:30:34.079Z,72.70
2019-03-22T13:33:04.060Z,73.30
2019-03-22T13:35:35.044Z,73.10
2019-03-22T13:38:08.611Z,73.20
2019-03-22T13:40:40.307Z,73.70
2019-03-22T13:43:11.460Z,73.40
2019-03-22T13:45:46.272Z,73.40
2019-03-22T13:48:17.697Z,73.00
2019-03-22T13:50:51.535Z,72.50
2019-03-22T13:53:22.104Z,72.70
2019-03-22T13:55:57.811Z,72.70
2019-03-22T13:58:30.303Z,71.60
2019-03-22T14:01:01.816Z,71.30
2019-03-22T14:03:33.225Z,69.20
2019-03-22T14:06:04.577Z,69.10
2019-03-22T14:08:35.588Z,68.90
2019-03-22T14:11:06.889Z,67.90
2019-03-22T14:13:41.723Z,67.80
2019-03-22T14:16:14.167Z,68.80
2019-03-22T14:18:43.926Z,69.40
2019-03-22T14:21:16.380Z,70.30
2019-03-22T14:23:47.880Z,70.80
2019-03-22T14:26:20.475Z,70.80
2019-03-22T14:28:53.699Z,72.10
2019-03-22T14:31:28.983Z,71.70
2019-03-22T14:34:02.405Z,73.30
2019-03-22T14:36:41.196Z,73.00
2019-03-22T14:39:14.072Z,73.60
2019-03-22T14:41:45.243Z,74.10
2019-03-22T14:44:24.990Z,74.40
2019-03-22T14:46:50.893Z,74.20
2019-03-22T14:49:30.586Z,74.80
2019-03-22T14:52:00.716Z,75.40
2019-03-22T14:54:32.710Z,76.00
2019-03-22T14:57:08.155Z,76.10
2019-03-22T14:59:38.076Z,76.80
2019-03-22T15:02:10.893Z,76.70
2019-03-22T15:04:42.666Z,76.90
2019-03-22T15:07:19.963Z,76.90
2019-03-22T15:09:50.335Z,76.80
2019-03-22T15:12:23.669Z,76.90
2019-03-22T15:14:58.567Z,77.00
2019-03-22T15:17:33.293Z,77.20
2019-03-22T15:20:10.655Z,77.60
2019-03-22T15:22:58.142Z,77.50
2019-03-22T15:25:33.593Z,77.40
2019-03-22T15:28:21.313Z,77.60
2019-03-22T15:31:09.208Z,78.40
2019-03-22T15:33:42.257Z,78.70
2019-03-22T15:36:23.612Z,79.20
2019-03-22T15:39:11.982Z,79.20
2019-03-22T15:41:43.079Z,79.20
2019-03-22T15:44:15.877Z,79.00
2019-03-22T15:46:45.800Z,78.80
2019-03-22T15:49:15.664Z,78.90
2019-03-22T15:51:49.768Z,79.00
2019-03-22T15:54:21.451Z,79.10
2019-03-22T15:56:54.913Z,79.00
2019-03-22T15:59:27.571Z,78.70
2019-03-22T16:02:01.197Z,78.80
2019-03-22T16:04:32.398Z,79.00
2019-03-22T16:07:04.359Z,79.00
2019-03-22T16:09:40.360Z,79.20
2019-03-22T16:12:32.413Z,79.20
2019-03-22T16:15:03.471Z,79.40
2019-03-22T16:17:33.835Z,79.30
2019-03-22T16:20:07.177Z,79.40
2019-03-22T16:22:39.287Z,79.50
2019-03-22T16:25:12.010Z,79.60
2019-03-22T16:27:42.822Z,79.80
2019-03-22T16:30:15.493Z,79.90
2019-03-22T16:32:46.625Z,80.00
2019-03-22T16:35:21.092Z,80.10
2019-03-22T16:37:52.320Z,80.20
2019-03-22T16:40:24.370Z,80.40
2019-03-22T16:42:58.365Z,80.50
2019-03-22T16:45:38.016Z,80.70
2019-03-22T16:48:09.585Z,80.70
2019-03-22T16:50:42.561Z,80.90
2019-03-22T16:53:14.584Z,80.90
2019-03-22T16:55:48.265Z,81.00
2019-03-22T16:58:19.993Z,81.10
2019-03-22T17:00:51.573Z,81.30
2019-03-22T17:03:22.530Z,81.40
2019-03-22T17:05:54.862Z,81.50
2019-03-22T17:08:27.339Z,81.50
2019-03-22T17:11:00.777Z,81.50
2019-03-22T17:13:30.010Z,81.60
2019-03-22T17:16:02.087Z,81.70
2019-03-22T17:18:34.466Z,81.60
2019-03-22T17:21:06.740Z,81.90
2019-03-22T17:23:36.627Z,82.10
2019-03-22T17:26:06.519Z,81.90
2019-03-22T17:28:38.285Z,82.10
2019-03-22T17:31:09.418Z,82.30
2019-03-22T17:33:44.367Z,82.20
2019-03-22T17:36:17.449Z,82.10
2019-03-22T17:38:48.645Z,82.20
2019-03-22T17:41:18.515Z,82.20
2019-03-22T17:43:52.847Z,82.30
2019-03-22T17:46:26.668Z,82.30
2019-03-22T17:49:02.641Z,82.30
2019-03-22T17:51:36.951Z,82.40
2019-03-22T17:54:10.723Z,82.20
2019-03-22T17:56:40.533Z,82.20
2019-03-22T17:59:11.629Z,82.40
2019-03-22T18:01:41.567Z,82.50
2019-03-22T18:04:13.338Z,82.60
2019-03-22T18:06:43.265Z,82.60
2019-03-22T18:09:13.264Z,82.90
2019-03-22T18:11:43.334Z,82.70
2019-03-22T18:14:17.818Z,82.70
2019-03-22T18:16:51.970Z,82.90
2019-03-22T18:19:23.044Z,83.10
2019-03-22T18:21:54.511Z,82.90
2019-03-22T18:24:25.355Z,82.60
2019-03-22T18:26:55.842Z,82.90
2019-03-22T18:29:28.468Z,82.90
2019-03-22T18:31:59.562Z,83.00
2019-03-22T18:34:34.468Z,83.10
2019-03-22T18:37:02.993Z,83.00
2019-03-22T18:39:32.247Z,83.10
2019-03-22T18:42:03.335Z,83.20
2019-03-22T18:44:34.542Z,83.40
2019-03-22T18:47:08.636Z,83.40
2019-03-22T18:49:40.896Z,83.40
2019-03-22T18:52:12.045Z,83.30
2019-03-22T18:54:44.234Z,83.30
2019-03-22T18:57:19.367Z,83.40
2019-03-22T18:59:50.473Z,83.50
2019-03-22T19:02:24.097Z,83.40
2019-03-22T19:04:59.963Z,83.30
2019-03-22T19:07:34.621Z,83.50
2019-03-22T19:10:05.903Z,83.50
2019-03-22T19:12:38.241Z,83.40
2019-03-22T19:15:28.906Z,83.60
2019-03-22T19:18:00.115Z,83.60
2019-03-22T19:20:31.383Z,83.40
2019-03-22T19:23:05.395Z,83.70
2019-03-22T19:25:36.640Z,83.90
2019-03-22T19:28:09.196Z,84.00
2019-03-22T19:30:38.560Z,84.20
2019-03-22T19:33:08.424Z,84.50
2019-03-22T19:35:38.439Z,84.70
2019-03-22T19:38:13.147Z,84.90
2019-03-22T19:40:45.732Z,85.30
2019-03-22T19:43:16.721Z,85.40
2019-03-22T19:45:49.207Z,85.80
2019-03-22T19:48:19.636Z,85.90
2019-03-22T19:50:51.949Z,85.80
2019-03-22T19:53:25.091Z,85.60
2019-03-22T19:55:56.224Z,85.50
2019-03-22T19:58:26.090Z,85.50
2019-03-22T20:00:57.046Z,85.50
2019-03-22T20:03:27.930Z,85.60
2019-03-22T20:06:02.483Z,85.80
2019-03-22T20:08:33.852Z,86.10
2019-03-22T20:11:05.147Z,86.10
2019-03-22T20:13:36.267Z,86.10
2019-03-22T20:16:07.844Z,85.90
2019-03-22T20:18:39.109Z,85.80
2019-03-22T20:21:11.238Z,85.90
2019-03-22T20:23:49.566Z,85.80
2019-03-22T20:26:16.130Z,85.60
2019-03-22T20:28:49.535Z,85.50
2019-03-22T20:31:20.233Z,85.70
2019-03-22T20:33:53.040Z,85.80
2019-03-22T20:36:23.971Z,85.90
2019-03-22T20:38:57.768Z,85.80
2019-03-22T20:41:27.795Z,85.60
2019-03-22T20:44:01.111Z,85.60
2019-03-22T20:46:34.174Z,85.80
2019-03-22T20:49:05.180Z,85.60
2019-03-22T20:51:35.132Z,85.60
2019-03-22T20:54:09.013Z,85.60
2019-03-22T20:56:38.894Z,85.70
2019-03-22T20:59:10.233Z,85.60
2019-03-22T21:01:42.671Z,85.60
2019-03-22T21:04:14.281Z,85.50
2019-03-22T21:06:48.984Z,85.80
2019-03-22T21:09:21.474Z,85.70
2019-03-22T21:11:54.081Z,85.80
2019-03-22T21:14:24.051Z,85.70
2019-03-22T21:16:55.818Z,85.70
2019-03-22T21:19:28.201Z,85.80
2019-03-22T21:21:58.185Z,85.80
2019-03-22T21:24:28.056Z,85.80
2019-03-22T21:26:59.525Z,86.00
2019-03-22T21:29:30.481Z,86.10
2019-03-22T21:32:01.750Z,86.20
2019-03-22T21:34:33.691Z,86.20
2019-03-22T21:37:04.946Z,86.10
2019-03-22T21:39:35.877Z,86.30
2019-03-22T21:42:08.683Z,86.40
2019-03-22T21:44:40.153Z,86.40
2019-03-22T21:47:12.033Z,86.90
2019-03-22T21:49:43.637Z,87.00
2019-03-22T21:52:14.827Z,87.20
2019-03-22T21:54:45.737Z,87.30
2019-03-22T21:57:16.962Z,87.50
2019-03-22T21:59:49.883Z,87.50
2019-03-22T22:02:19.953Z,87.40
2019-03-22T22:04:53.125Z,87.40
2019-03-22T22:07:23.060Z,87.60
2019-03-22T22:09:54.945Z,87.90
2019-03-22T22:12:28.986Z,88.40
2019-03-22T22:15:02.477Z,88.30
2019-03-22T22:17:34.345Z,88.20
2019-03-22T22:20:08.652Z,88.40
2019-03-22T22:22:38.729Z,88.30
2019-03-22T22:25:11.657Z,88.30
2019-03-22T22:27:41.594Z,88.30
2019-03-22T22:30:12.845Z,88.00
2019-03-22T22:32:43.879Z,87.80
2019-03-22T22:35:16.894Z,88.10
2019-03-22T22:37:49.483Z,88.10
2019-03-22T22:40:20.912Z,88.50
2019-03-22T22:42:51.887Z,88.30
2019-03-22T22:45:23.968Z,88.20
2019-03-22T22:48:17.077Z,88.10
2019-03-22T22:50:48.721Z,87.90
2019-03-22T22:53:18.907Z,87.70
2019-03-22T22:55:50.447Z,87.80
2019-03-22T22:58:22.775Z,87.90
2019-03-22T23:00:55.229Z,88.00
2019-03-22T23:03:26.888Z,88.20
2019-03-22T23:06:05.317Z,87.90
2019-03-22T23:08:30.937Z,88.00
2019-03-22T23:11:04.128Z,87.80
2019-03-22T23:13:34.065Z,87.90
2019-03-22T23:16:06.843Z,87.40
2019-03-22T23:18:38.730Z,87.50
2019-03-22T23:21:13.214Z,87.50
2019-03-22T23:23:43.072Z,87.80
2019-03-22T23:26:12.952Z,87.90
2019-03-22T23:28:44.354Z,88.20
2019-03-22T23:31:16.102Z,88.10
2019-03-22T23:33:48.526Z,88.50
2019-03-22T23:36:20.515Z,88.60
2019-03-22T23:38:54.455Z,88.30
2019-03-22T23:41:25.374Z,88.10
2019-03-22T23:43:54.596Z,88.10
2019-03-22T23:46:27.203Z,88.00
2019-03-22T23:48:58.194Z,88.10
2019-03-22T23:51:30.803Z,88.10
2019-03-22T23:54:04.399Z,88.30
2019-03-22T23:56:34.355Z,88.30
2019-03-22T23:59:05.992Z,88.20
